Time,TemperatureF,DewpointF,PressureIn,WindDirection,WindDirectionDegrees,WindSpeedMPH,WindSpeedGustMPH,Humidity,HourlyPrecipIn,Conditions,Clouds,dailyrainin,SolarRadiationWatts/m^2,SoftwareType,DateUTC
2013-08-24 00:15:00,55.9,52.4,30.20,ESE,108,0.0,2.0,88,0.00,CLR,SKC,0.00,0.0,WeatherDisplay:10.37,2013-08-24 06:15:00,
2013-08-24 00:45:00,56.5,51.4,30.19,ESE,108,0.0,2.0,83,0.00,CLR,SKC,0.00,0.0,WeatherDisplay:10.37,2013-08-24 06:45:00,
2013-08-24 01:15:00,56.2,51.1,30.20,ESE,105,0.0,2.0,83,0.00,CLR,SKC,0.00,0.0,WeatherDisplay:10.37,2013-08-24 07:15:00,
2013-08-24 01:45:00,54.8,50.7,30.20,ESE,105,0.0,1.0,86,0.00,CLR,SKC,0.00,0.0,WeatherDisplay:10.37,2013-08-24 07:45:00,
2013-08-24 02:15:00,54.1,50.3,30.21,ESE,105,0.0,1.0,87,0.00,CLR,SKC,0.00,0.0,WeatherDisplay:10.37,2013-08-24 08:15:00,
2013-08-24 02:45:00,54.2,50.4,30.22,ESE,105,0.0,1.0,87,0.00,CLR,SKC,0.00,0.0,WeatherDisplay:10.37,2013-08-24 08:45:00,
2013-08-24 03:15:00,53.6,50.1,30.23,ESE,105,0.0,0.0,88,0.00,CLR,SKC,0.00,0.0,WeatherDisplay:10.37,2013-08-24 09:15:00,
2013-08-24 03:45:00,52.7,49.3,30.24,ESE,105,0.0,1.0,88,0.00,CLR,SKC,0.00,0.0,WeatherDisplay:10.37,2013-08-24 09:45:00,
2013-08-24 04:15:00,53.0,48.9,30.24,ESE,105,0.0,1.0,86,0.00,CLR,SKC,0.00,0.0,WeatherDisplay:10.37,2013-08-24 10:15:00,
2013-08-24 04:45:00,53.5,49.1,30.24,ESE,102,1.0,3.0,85,0.00,CLR,SKC,0.00,0.0,WeatherDisplay:10.37,2013-08-24 10:45:00,
2013-08-24 05:15:00,53.8,48.7,30.25,East,101,0.0,1.0,83,0.00,CLR,SKC,0.00,0.0,WeatherDisplay:10.37,2013-08-24 11:15:00,
2013-08-24 05:45:00,52.4,48.0,30.25,East,101,0.0,0.0,85,0.00,CLR,SKC,0.00,0.0,WeatherDisplay:10.37,2013-08-24 11:45:00,
2013-08-24 06:15:00,51.4,48.0,30.27,East,101,0.0,1.0,88,0.00,RA,SKC,0.01,0.0,WeatherDisplay:10.37,2013-08-24 12:15:00,
2013-08-24 06:45:00,51.6,48.4,30.28,East,101,0.0,1.0,89,0.00,OVC,SKC,0.01,0.0,WeatherDisplay:10.37,2013-08-24 12:45:00,
2013-08-24 07:15:00,51.5,48.4,30.29,SE,130,0.0,1.0,89,0.00,BKN,SKC,0.01,23.0,WeatherDisplay:10.37,2013-08-24 13:15:00,
2013-08-24 07:45:00,54.9,51.4,30.30,South,190,0.0,0.0,88,0.00,CLR,SKC,0.01,125.0,WeatherDisplay:10.37,2013-08-24 13:45:00,
2013-08-24 08:15:00,57.0,51.9,30.30,NW,325,0.0,1.0,83,0.00,CLR,SKC,0.01,218.0,WeatherDisplay:10.37,2013-08-24 14:15:00,
2013-08-24 08:45:00,60.5,52.6,30.30,WSW,246,1.0,3.0,75,0.00,CLR,SKC,0.01,37.0,WeatherDisplay:10.37,2013-08-24 14:45:00,
2013-08-24 09:15:00,61.9,52.7,30.30,North,355,0.0,3.0,72,0.00,CLR,SKC,0.01,508.0,WeatherDisplay:10.37,2013-08-24 15:15:00,
2013-08-24 09:45:00,64.9,53.3,30.29,NW,326,0.0,3.0,66,0.00,CLR,SKC,0.01,517.0,WeatherDisplay:10.37,2013-08-24 15:45:00,
2013-08-24 10:15:00,65.1,54.7,30.29,WNW,294,3.0,4.0,69,0.00,CLR,SKC,0.01,596.0,WeatherDisplay:10.37,2013-08-24 16:15:00,
2013-08-24 10:45:00,70.1,52.2,30.29,NW,315,1.0,3.0,53,0.00,CLR,SKC,0.01,679.0,WeatherDisplay:10.37,2013-08-24 16:45:00,
2013-08-24 11:15:00,69.5,51.6,30.28,WNW,282,1.0,5.0,53,0.00,CLR,SKC,0.01,754.0,WeatherDisplay:10.37,2013-08-24 17:15:00,
2013-08-24 11:45:00,73.7,52.8,30.27,West,264,1.0,5.0,48,0.00,CLR,SKC,0.01,847.0,WeatherDisplay:10.37,2013-08-24 17:45:00,
2013-08-24 12:15:00,75.3,51.9,30.25,WSW,242,1.0,5.0,44,0.00,CLR,SKC,0.01,889.0,WeatherDisplay:10.37,2013-08-24 18:15:00,
2013-08-24 12:45:00,77.6,52.0,30.23,West,277,3.0,9.0,41,0.00,CLR,SKC,0.01,953.0,WeatherDisplay:10.37,2013-08-24 18:45:00,
2013-08-24 13:15:00,75.6,51.5,30.22,WNW,290,10.0,20.0,43,0.00,SCT,SKC,0.01,554.0,WeatherDisplay:10.37,2013-08-24 19:15:00,
2013-08-24 13:45:00,76.5,49.0,30.21,NW,305,3.0,7.0,38,0.00,FEW,SKC,0.01,677.0,WeatherDisplay:10.37,2013-08-24 19:45:00,
2013-08-24 14:15:00,77.5,46.1,30.21,NW,312,2.0,5.0,33,0.00,SCT,SKC,0.01,482.0,WeatherDisplay:10.37,2013-08-24 20:15:00,
2013-08-24 14:45:00,73.2,51.8,30.20,East,96,10.0,17.0,47,0.00,BKN,SKC,0.01,288.0,WeatherDisplay:10.37,2013-08-24 20:45:00,
2013-08-24 15:15:00,71.3,51.2,30.19,SSE,148,10.0,22.0,49,0.00,BKN,SKC,0.01,255.0,WeatherDisplay:10.37,2013-08-24 21:15:00,
2013-08-24 15:45:00,73.5,50.8,30.19,SSW,204,0.0,4.0,45,0.00,BKN,SKC,0.01,304.0,WeatherDisplay:10.37,2013-08-24 21:45:00,
2013-08-24 16:15:00,67.3,51.6,30.19,NW,310,10.0,16.0,57,0.00,BKN,SKC,0.01,186.0,WeatherDisplay:10.37,2013-08-24 22:15:00,
2013-08-24 16:45:00,67.2,50.5,30.21,NW,315,0.0,5.0,55,0.00,BKN,SKC,0.01,47.0,WeatherDisplay:10.37,2013-08-24 22:45:00,
2013-08-24 17:15:00,63.0,55.3,30.22,NE,53,1.0,6.0,76,0.00,BKN,SKC,0.02,207.0,WeatherDisplay:10.37,2013-08-24 23:15:00,
2013-08-24 17:45:00,66.8,56.3,30.21,ENE,75,3.0,7.0,69,0.00,FEW,SKC,0.03,343.0,WeatherDisplay:10.37,2013-08-24 23:45:00,
2013-08-24 18:15:00,67.9,54.4,30.20,ENE,59,2.0,7.0,62,0.00,FEW,SKC,0.04,269.0,WeatherDisplay:10.37,2013-08-25 00:15:00,
2013-08-24 18:45:00,67.0,54.0,30.22,North,350,5.0,9.0,63,0.00,RA,SKC,0.05,158.0,WeatherDisplay:10.37,2013-08-25 00:45:00,
2013-08-24 19:15:00,66.4,53.0,30.22,NNE,17,3.0,6.0,62,0.00,BKN,SKC,0.05,40.0,WeatherDisplay:10.37,2013-08-25 01:15:00,
2013-08-24 19:45:00,66.2,51.9,30.22,ENE,78,1.0,7.0,60,0.00,BKN,SKC,0.05,11.0,WeatherDisplay:10.37,2013-08-25 01:45:00,
2013-08-24 20:15:00,65.2,51.8,30.24,North,359,0.0,4.0,62,0.00,OVC,SKC,0.06,0.0,WeatherDisplay:10.37,2013-08-25 02:15:00,
2013-08-24 20:45:00,63.9,52.7,30.27,NW,315,0.0,1.0,67,0.00,CLR,SKC,0.06,0.0,WeatherDisplay:10.37,2013-08-25 02:45:00,
2013-08-24 21:15:00,63.9,53.5,30.29,South,181,3.0,15.0,69,0.00,CLR,SKC,0.06,0.0,WeatherDisplay:10.37,2013-08-25 03:15:00,
2013-08-24 21:45:00,61.3,54.0,30.27,ESE,118,5.0,7.0,77,0.00,CLR,SKC,0.07,0.0,WeatherDisplay:10.37,2013-08-25 03:45:00,
2013-08-24 22:15:00,61.1,53.8,30.26,ENE,77,0.0,1.0,77,0.00,CLR,SKC,0.07,0.0,WeatherDisplay:10.37,2013-08-25 04:15:00,
2013-08-24 22:45:00,60.4,54.2,30.27,ENE,77,0.0,3.0,80,0.00,CLR,SKC,0.07,0.0,WeatherDisplay:10.37,2013-08-25 04:45:00,
2013-08-24 23:15:00,59.8,54.3,30.27,ENE,77,0.0,1.0,82,0.00,CLR,SKC,0.07,0.0,WeatherDisplay:10.37,2013-08-25 05:15:00,
2013-08-24 23:45:00,58.9,54.7,30.27,ENE,77,0.0,1.0,86,0.00,CLR,SKC,0.07,0.0,WeatherDisplay:10.37,2013-08-25 05:45:00,